Hauptseite
METAR-TAF:

METAR-TAF

Flughäfen :

Timimoun, Algerien

Breite: 29-15N, Länge: 000-17E, Höhe: 312 m

Beobachtung

Neuester Wetterbericht von vor 16 Minuten, um 07:00 UTC
Wind 4 kt aus Nordost
Temperatur 6°C
Luftfeuchtigkeit 65%
Luftdruck 1022 hPa
Sichtweite 10 km oder mehr
keine Wolken unter 1500 m und keine Kumulonimbus oder Gewitterwolken

METAR: DAUT 240700Z 04004KT CAVOK 06/M00 Q1022

Zeit: 08:16 (07:16 UTC)

Prognose

Neuester Wetterbericht von vor 2 Stunden und 16 Minuten, um 05:00 UTC
Gültige Prognose vom 24 um 06 UTC bis 24 um 15 UTC
Wind 8 kt aus Ost
Sichtweite 10 km oder mehr
keine Wolken unter 1500 m und keine Kumulonimbus oder Gewitterwolken

TAF: DAUT 240500Z 2406/2415 08008KT CAVOK

Wetterbeobachtungen und Prognosen von mehr als 4000 Flughäfen (METAR und TAF Bericht).

Die verfügbaren Stationen werden durch gelbe und rote Markierungen auf der Karte dargestellt.

Führen Sie die Maus auf sie, um den Namen der Station zu sehen.

Darauf klicken, um die Beobachtung von Wetterbeobachtungen und Prognosen zu sehen.

Um die Karte zu ändern : klicken Sie auf den grünen Tasten mit einem schwarzen Kreuz Zum Vergrößern, auf den grünen Button mit einem Gedankenstrich zu verkleinern, oder auf die grünen Pfeile für benachbarte Karten.


METAR-TAF: